createdAt,value
2018-04-11T00:02:05.274Z,49.97
2018-04-11T00:04:33.626Z,50.10
2018-04-11T00:07:01.951Z,50.27
2018-04-11T00:09:30.327Z,50.43
2018-04-11T00:11:58.653Z,50.70
2018-04-11T00:14:27.027Z,50.71
2018-04-11T00:16:56.125Z,50.86
2018-04-11T00:19:25.240Z,51.13
2018-04-11T00:21:53.962Z,51.53
2018-04-11T00:24:22.317Z,51.84
2018-04-11T00:26:51.076Z,52.03
2018-04-11T00:29:19.432Z,52.94
2018-04-11T00:31:48.544Z,52.87
2018-04-11T00:34:18.438Z,52.48
2018-04-11T00:36:46.782Z,53.09
2018-04-11T00:39:15.100Z,52.88
2018-04-11T00:41:43.487Z,53.06
2018-04-11T00:44:12.617Z,53.21
2018-04-11T00:46:40.969Z,53.23
2018-04-11T00:49:09.341Z,53.23
2018-04-11T00:51:38.098Z,53.44
2018-04-11T00:54:06.437Z,53.93
2018-04-11T00:56:34.811Z,54.15
2018-04-11T00:59:03.536Z,53.97
2018-04-11T01:01:32.282Z,53.90
2018-04-11T01:04:00.607Z,53.90
2018-04-11T01:06:28.978Z,54.13
2018-04-11T01:08:57.321Z,54.53
2018-04-11T01:11:26.053Z,54.76
2018-04-11T01:13:55.174Z,55.07
2018-04-11T01:16:24.260Z,55.50
2018-04-11T01:18:53.389Z,55.62
2018-04-11T01:21:22.161Z,55.44
2018-04-11T01:23:50.494Z,55.83
2018-04-11T01:26:19.249Z,55.76
2018-04-11T01:28:47.612Z,55.95
2018-04-11T01:31:15.929Z,56.27
2018-04-11T01:33:44.258Z,56.34
2018-04-11T01:36:12.627Z,56.62
2018-04-11T01:38:40.941Z,56.98
2018-04-11T01:41:09.301Z,57.27
2018-04-11T01:43:37.684Z,57.12
2018-04-11T01:46:06.045Z,57.20
2018-04-11T01:48:34.382Z,57.48
2018-04-11T01:51:02.751Z,57.54
2018-04-11T01:53:31.099Z,57.38
2018-04-11T01:55:59.422Z,57.47
2018-04-11T01:58:28.170Z,57.81
2018-04-11T02:00:56.534Z,58.13
2018-04-11T02:03:24.902Z,58.39
2018-04-11T02:05:53.286Z,58.83
2018-04-11T02:08:21.611Z,59.13
2018-04-11T02:10:49.978Z,59.54
2018-04-11T02:13:18.310Z,59.85
2018-04-11T02:15:46.686Z,60.18
2018-04-11T02:18:15.065Z,60.66
2018-04-11T02:20:44.166Z,61.03
2018-04-11T02:23:12.529Z,61.28
2018-04-11T02:25:40.860Z,61.64
2018-04-11T02:28:09.201Z,62.13
2018-04-11T02:30:37.507Z,62.29
2018-04-11T02:33:05.897Z,62.58
2018-04-11T02:35:34.213Z,63.02
2018-04-11T02:38:02.562Z,63.32
2018-04-11T02:40:30.938Z,63.67
2018-04-11T02:42:59.614Z,63.91
2018-04-11T02:45:28.027Z,64.29
2018-04-11T02:47:57.902Z,64.81
2018-04-11T02:50:26.222Z,65.24
2018-04-11T02:52:54.541Z,66.12
2018-04-11T02:55:22.908Z,66.80
2018-04-11T02:57:51.217Z,67.06
2018-04-11T03:00:19.557Z,67.41
2018-04-11T03:02:47.912Z,67.63
2018-04-11T03:05:16.233Z,67.99
2018-04-11T03:07:44.599Z,68.11
2018-04-11T03:10:12.933Z,68.30
2018-04-11T03:12:42.048Z,68.45
2018-04-11T03:15:10.399Z,68.74
2018-04-11T03:17:38.732Z,68.92
2018-04-11T03:20:07.517Z,69.19
2018-04-11T03:22:35.938Z,69.48
2018-04-11T03:25:05.200Z,69.81
2018-04-11T03:27:33.554Z,70.15
2018-04-11T03:30:01.926Z,70.58
2018-04-11T03:32:30.252Z,71.29
2018-04-11T03:34:58.555Z,71.77
2018-04-11T03:37:27.667Z,72.20
2018-04-11T03:39:56.005Z,72.75
2018-04-11T03:42:24.344Z,73.23
2018-04-11T03:44:52.675Z,73.62
2018-04-11T03:47:21.784Z,73.91
2018-04-11T03:49:50.154Z,74.52
2018-04-11T03:52:19.253Z,74.93
2018-04-11T03:54:47.611Z,75.10
2018-04-11T03:57:15.936Z,75.51
2018-04-11T03:59:44.327Z,75.80
2018-04-11T04:02:12.660Z,76.10
2018-04-11T04:04:41.791Z,76.76
2018-04-11T04:07:10.153Z,77.10
2018-04-11T04:09:38.487Z,77.72
2018-04-11T04:12:06.844Z,77.69
2018-04-11T04:14:52.751Z,77.57
2018-04-11T04:17:38.770Z,77.77
2018-04-11T04:20:40.183Z,78.37
2018-04-11T04:23:08.666Z,78.56
2018-04-11T04:25:37.897Z,78.73
2018-04-11T04:28:07.025Z,78.78
2018-04-11T04:30:35.782Z,78.75
2018-04-11T04:33:04.894Z,78.87
2018-04-11T04:35:34.034Z,79.04
2018-04-11T04:38:02.381Z,79.33
2018-04-11T04:40:31.539Z,79.44
2018-04-11T04:43:00.679Z,79.51
2018-04-11T04:45:29.058Z,79.66
2018-04-11T04:47:57.436Z,80.01
2018-04-11T04:50:25.847Z,80.09
2018-04-11T04:52:54.212Z,80.20
2018-04-11T04:55:22.554Z,80.30
2018-04-11T04:57:50.917Z,80.42
2018-04-11T05:00:20.039Z,80.42
2018-04-11T05:02:48.463Z,80.46
2018-04-11T05:05:16.801Z,80.67
2018-04-11T05:07:45.169Z,80.91
2018-04-11T05:10:13.531Z,81.09
2018-04-11T05:12:47.299Z,81.27
2018-04-11T05:15:15.691Z,81.31
2018-04-11T05:17:44.821Z,81.58
2018-04-11T05:20:13.194Z,81.55
2018-04-11T05:22:42.409Z,81.47
2018-04-11T05:25:10.784Z,81.38
2018-04-11T05:27:39.119Z,81.16
2018-04-11T05:30:08.209Z,80.86
2018-04-11T05:32:36.578Z,80.52
2018-04-11T05:35:05.875Z,79.90
2018-04-11T05:37:34.261Z,79.09
2018-04-11T05:40:03.037Z,77.99
2018-04-11T05:42:31.412Z,76.80
2018-04-11T05:45:00.180Z,75.85
2018-04-11T05:47:29.308Z,75.33
2018-04-11T05:49:57.696Z,75.40
2018-04-11T05:52:26.036Z,75.39
2018-04-11T05:54:54.394Z,75.51
2018-04-11T05:57:22.762Z,75.84
2018-04-11T05:59:51.118Z,76.23
2018-04-11T06:02:20.256Z,76.61
2018-04-11T06:04:49.854Z,76.27
2018-04-11T06:07:18.245Z,75.30
2018-04-11T06:09:46.632Z,74.18
2018-04-11T06:12:15.010Z,73.70
2018-04-11T06:14:43.355Z,73.37
2018-04-11T06:17:12.095Z,72.27
2018-04-11T06:19:40.455Z,71.89
2018-04-11T06:22:09.572Z,73.02
2018-04-11T06:24:37.959Z,73.31
2018-04-11T06:27:07.673Z,72.87
2018-04-11T06:29:36.842Z,72.99
2018-04-11T06:32:05.610Z,72.91
2018-04-11T06:34:33.963Z,72.83
2018-04-11T06:37:02.303Z,72.45
2018-04-11T06:39:31.088Z,71.89
2018-04-11T06:41:59.477Z,71.76
2018-04-11T06:44:28.599Z,71.97
2018-04-11T06:46:57.010Z,71.93
2018-04-11T06:49:25.338Z,71.13
2018-04-11T06:51:54.491Z,70.68
2018-04-11T06:54:22.890Z,70.46
2018-04-11T06:56:51.326Z,70.12
2018-04-11T06:59:19.729Z,69.59
2018-04-11T07:01:48.131Z,69.47
2018-04-11T07:04:16.503Z,69.44
2018-04-11T07:06:44.850Z,69.01
2018-04-11T07:09:13.250Z,68.98
2018-04-11T07:11:41.598Z,68.36
2018-04-11T07:14:09.994Z,68.02
2018-04-11T07:16:38.327Z,67.58
2018-04-11T07:19:07.450Z,67.02
2018-04-11T07:21:35.818Z,66.85
2018-04-11T07:24:04.203Z,66.46
2018-04-11T07:26:32.520Z,66.18
2018-04-11T07:29:00.854Z,65.92
2018-04-11T07:31:29.266Z,65.71
2018-04-11T07:33:57.646Z,65.50
2018-04-11T07:36:25.980Z,64.68
2018-04-11T07:38:54.361Z,64.45
2018-04-11T07:41:22.721Z,63.90
2018-04-11T07:43:51.057Z,63.72
2018-04-11T07:46:19.405Z,63.91
2018-04-11T07:48:47.740Z,63.99
2018-04-11T07:51:16.119Z,63.72
2018-04-11T07:53:45.216Z,63.89
2018-04-11T07:56:13.588Z,63.15
2018-04-11T07:58:42.670Z,62.83
2018-04-11T08:01:11.048Z,62.51
2018-04-11T08:03:39.401Z,61.90
2018-04-11T08:06:07.780Z,61.51
2018-04-11T08:08:36.907Z,61.28
2018-04-11T08:11:05.238Z,61.25
2018-04-11T08:13:33.608Z,61.46
2018-04-11T08:16:01.961Z,60.59
2018-04-11T08:18:30.337Z,59.75
2018-04-11T08:20:58.712Z,59.15
2018-04-11T08:23:30.445Z,59.21
2018-04-11T08:25:58.809Z,59.30
2018-04-11T08:28:27.128Z,59.56
2018-04-11T08:30:55.513Z,59.79
2018-04-11T08:33:23.895Z,60.97
2018-04-11T08:35:52.226Z,61.55
2018-04-11T08:38:20.596Z,61.37
2018-04-11T08:40:48.993Z,60.95
2018-04-11T08:43:17.340Z,61.77
2018-04-11T08:45:45.668Z,62.15
2018-04-11T08:48:14.821Z,61.35
2018-04-11T08:50:43.191Z,60.74
2018-04-11T08:53:11.534Z,60.42
2018-04-11T08:55:39.904Z,60.77
2018-04-11T08:58:08.233Z,59.79
2018-04-11T09:00:36.608Z,59.10
2018-04-11T09:03:04.977Z,59.07
2018-04-11T09:05:33.383Z,57.91
2018-04-11T09:08:01.758Z,58.37
2018-04-11T09:10:30.132Z,58.10
2018-04-11T09:12:58.453Z,57.29
2018-04-11T09:15:26.958Z,56.76
2018-04-11T09:17:55.284Z,56.41
2018-04-11T09:20:24.381Z,54.86
2018-04-11T09:22:52.753Z,54.31
2018-04-11T09:25:21.075Z,53.66
2018-04-11T09:27:49.413Z,55.06
2018-04-11T09:30:18.888Z,55.36
2018-04-11T09:32:48.038Z,55.22
2018-04-11T09:35:16.523Z,54.48
2018-04-11T09:37:45.948Z,53.71
2018-04-11T09:40:14.793Z,51.99
2018-04-11T09:42:43.977Z,52.50
2018-04-11T09:45:12.588Z,50.58
2018-04-11T09:47:41.335Z,48.06
2018-04-11T09:50:10.300Z,49.16
2018-04-11T09:52:38.685Z,50.00
2018-04-11T09:55:07.421Z,49.05
2018-04-11T09:57:35.884Z,49.02
2018-04-11T10:00:04.217Z,50.06
2018-04-11T10:02:37.321Z,49.99
2018-04-11T10:05:06.118Z,49.40
2018-04-11T10:07:35.272Z,48.75
2018-04-11T10:10:04.649Z,47.62
2018-04-11T10:12:33.098Z,48.23
2018-04-11T10:15:01.593Z,49.42
2018-04-11T10:17:30.747Z,50.02
2018-04-11T10:19:59.529Z,49.80
2018-04-11T10:22:27.875Z,49.03
2018-04-11T10:24:57.016Z,47.33
2018-04-11T10:27:25.355Z,46.92
2018-04-11T10:29:53.737Z,46.39
2018-04-11T10:32:22.061Z,47.16
2018-04-11T10:34:50.422Z,46.99
2018-04-11T10:37:18.765Z,47.91
2018-04-11T10:39:47.159Z,48.13
2018-04-11T10:42:16.242Z,46.69
2018-04-11T10:44:45.369Z,46.37
2018-04-11T10:47:13.741Z,45.75
2018-04-11T10:49:42.111Z,45.00
2018-04-11T10:52:10.501Z,44.80
2018-04-11T10:54:38.829Z,45.36
2018-04-11T10:57:07.972Z,45.27
2018-04-11T10:59:36.344Z,44.38
2018-04-11T11:02:04.685Z,45.37
2018-04-11T11:04:33.064Z,45.08
2018-04-11T11:07:02.168Z,45.01
2018-04-11T11:09:31.287Z,45.73
2018-04-11T11:11:59.664Z,45.26
2018-04-11T11:14:28.025Z,44.52
2018-04-11T11:16:56.398Z,45.20
2018-04-11T11:19:25.525Z,44.71
2018-04-11T11:21:53.899Z,45.28
2018-04-11T11:24:22.231Z,44.29
2018-04-11T11:26:51.381Z,44.83
2018-04-11T11:29:19.721Z,45.43
2018-04-11T11:31:48.823Z,44.67
2018-04-11T11:34:17.216Z,44.16
2018-04-11T11:36:46.373Z,44.75
2018-04-11T11:39:14.762Z,45.00
2018-04-11T11:41:43.896Z,45.11
2018-04-11T11:44:12.270Z,44.37
2018-04-11T11:46:42.397Z,43.68
2018-04-11T11:49:10.800Z,42.84
2018-04-11T11:51:39.156Z,42.47
2018-04-11T11:54:08.267Z,42.19
2018-04-11T11:56:36.667Z,42.00
2018-04-11T11:59:05.067Z,41.42
2018-04-11T12:01:34.192Z,41.70
2018-04-11T12:04:02.545Z,41.40
2018-04-11T12:06:30.947Z,41.36
2018-04-11T12:08:59.281Z,41.29
2018-04-11T12:11:27.677Z,41.18
2018-04-11T12:13:56.829Z,39.74
2018-04-11T12:16:25.221Z,40.37
2018-04-11T12:18:53.612Z,40.54
2018-04-11T12:21:21.971Z,40.33
2018-04-11T12:23:50.303Z,39.69
2018-04-11T12:26:18.686Z,39.92
2018-04-11T12:28:47.012Z,39.90
2018-04-11T12:31:15.356Z,40.20
2018-04-11T12:33:43.740Z,40.09
2018-04-11T12:36:12.079Z,39.19
2018-04-11T12:38:41.225Z,39.86
2018-04-11T12:41:09.578Z,41.22
2018-04-11T12:43:37.966Z,39.69
2018-04-11T12:46:06.356Z,39.60
2018-04-11T12:48:34.745Z,38.24
2018-04-11T12:51:03.204Z,36.97
2018-04-11T12:53:31.576Z,36.68
2018-04-11T12:55:59.980Z,35.30
2018-04-11T12:58:28.371Z,37.62
2018-04-11T13:00:56.764Z,39.89
2018-04-11T13:03:25.120Z,39.78
2018-04-11T13:05:53.523Z,39.60
2018-04-11T13:08:22.683Z,41.25
2018-04-11T13:10:51.038Z,42.55
2018-04-11T13:13:19.362Z,41.72
2018-04-11T13:15:47.780Z,40.77
2018-04-11T13:18:16.177Z,41.19
2018-04-11T13:20:44.556Z,40.97
2018-04-11T13:23:12.932Z,40.10
2018-04-11T13:25:41.322Z,39.64
2018-04-11T13:28:09.655Z,39.94
2018-04-11T13:30:38.787Z,40.98
2018-04-11T13:33:07.143Z,43.64
2018-04-11T13:35:35.525Z,44.11
2018-04-11T13:38:03.876Z,43.52
2018-04-11T13:40:33.634Z,43.19
2018-04-11T13:43:02.425Z,44.04
2018-04-11T13:45:30.783Z,44.21
2018-04-11T13:47:59.238Z,44.59
2018-04-11T13:50:28.352Z,44.24
2018-04-11T13:52:56.760Z,44.07
2018-04-11T13:55:25.114Z,44.19
2018-04-11T13:57:53.521Z,44.09
2018-04-11T14:00:21.916Z,44.63
2018-04-11T14:02:50.295Z,44.95
2018-04-11T14:05:18.666Z,44.35
2018-04-11T14:07:47.064Z,44.26
2018-04-11T14:10:15.431Z,44.51
2018-04-11T14:12:43.813Z,44.92
2018-04-11T14:15:12.177Z,45.15
2018-04-11T14:17:40.551Z,46.10
2018-04-11T14:20:08.894Z,46.17
2018-04-11T14:22:37.293Z,45.26
2018-04-11T14:25:05.633Z,44.88
2018-04-11T14:27:34.049Z,45.05
2018-04-11T14:30:02.439Z,44.50
2018-04-11T14:32:30.817Z,45.74
2018-04-11T14:34:59.167Z,45.04
2018-04-11T14:37:27.541Z,45.63
2018-04-11T14:39:55.900Z,44.99
2018-04-11T14:42:25.060Z,45.20
2018-04-11T14:44:53.468Z,44.63
2018-04-11T14:47:22.700Z,44.62
2018-04-11T14:49:51.085Z,45.71
2018-04-11T14:52:19.429Z,45.57
2018-04-11T14:54:47.919Z,45.10
2018-04-11T14:57:16.651Z,45.40
2018-04-11T14:59:45.009Z,46.70
2018-04-11T15:02:13.382Z,47.71
2018-04-11T15:04:44.622Z,48.21
2018-04-11T15:07:13.333Z,48.37
2018-04-11T15:09:41.796Z,48.10
2018-04-11T15:12:10.170Z,47.79
2018-04-11T15:14:38.663Z,46.58
2018-04-11T15:17:07.319Z,46.16
2018-04-11T15:19:35.748Z,45.48
2018-04-11T15:22:04.607Z,46.89
2018-04-11T15:24:34.172Z,47.58
2018-04-11T15:27:04.332Z,46.83
2018-04-11T15:29:32.683Z,48.04
2018-04-11T15:32:01.918Z,46.77
2018-04-11T15:34:30.285Z,45.97
2018-04-11T15:36:58.653Z,47.70
2018-04-11T15:39:27.127Z,47.11
2018-04-11T15:41:55.555Z,46.03
2018-04-11T15:44:25.390Z,47.99
2018-04-11T15:46:53.796Z,50.42
2018-04-11T15:49:22.239Z,51.24
2018-04-11T15:51:50.748Z,51.47
2018-04-11T15:54:20.649Z,51.77
2018-04-11T15:56:50.923Z,51.49
2018-04-11T15:59:19.498Z,51.89
2018-04-11T16:01:47.921Z,52.15
2018-04-11T16:04:16.611Z,52.76
2018-04-11T16:06:45.055Z,53.23
2018-04-11T16:09:13.833Z,53.36
2018-04-11T16:11:42.296Z,53.78
2018-04-11T16:14:10.791Z,54.41
2018-04-11T16:16:40.674Z,54.14
2018-04-11T16:19:09.141Z,54.40
2018-04-11T16:21:38.308Z,54.48
2018-04-11T16:24:06.695Z,54.73
2018-04-11T16:26:35.135Z,54.85
2018-04-11T16:29:03.608Z,54.83
2018-04-11T16:31:33.525Z,54.93
2018-04-11T16:34:02.030Z,55.38
2018-04-11T16:36:30.469Z,55.66
2018-04-11T16:38:59.736Z,55.91
2018-04-11T16:41:30.542Z,56.14
2018-04-11T16:44:00.139Z,56.68
2018-04-11T16:46:29.343Z,56.90
2018-04-11T16:48:57.776Z,56.92
2018-04-11T16:51:28.770Z,57.37
2018-04-11T16:53:57.137Z,57.55
2018-04-11T16:56:30.580Z,57.76
2018-04-11T16:59:00.349Z,58.00
2018-04-11T17:01:28.986Z,58.05
2018-04-11T17:04:05.322Z,58.46
2018-04-11T17:09:09.156Z,58.93
2018-04-11T17:11:37.973Z,59.08
2018-04-11T17:14:07.207Z,59.33
2018-04-11T17:16:35.629Z,59.61
2018-04-11T17:19:04.128Z,59.92
2018-04-11T17:21:50.502Z,60.28
2018-04-11T17:24:36.548Z,60.58
2018-04-11T17:27:22.933Z,60.91
2018-04-11T17:30:09.026Z,61.22
2018-04-11T17:32:38.572Z,61.65
2018-04-11T17:35:07.262Z,62.10
2018-04-11T17:37:36.861Z,62.48
2018-04-11T17:40:10.211Z,62.88
2018-04-11T17:42:38.793Z,63.02
2018-04-11T17:45:08.428Z,63.26
2018-04-11T17:47:39.982Z,63.87
2018-04-11T17:50:09.408Z,64.22
2018-04-11T17:52:37.761Z,64.51
2018-04-11T17:55:06.380Z,65.08
2018-04-11T17:57:34.725Z,65.38
2018-04-11T18:00:03.124Z,65.96
2018-04-11T18:02:31.497Z,66.85
2018-04-11T18:04:59.895Z,67.15
2018-04-11T18:07:28.258Z,67.27
2018-04-11T18:09:56.623Z,67.05
2018-04-11T18:12:25.000Z,67.40
2018-04-11T18:14:53.393Z,67.65
2018-04-11T18:17:21.745Z,67.95
2018-04-11T18:19:50.119Z,67.92
2018-04-11T18:22:18.783Z,68.40
2018-04-11T18:24:47.932Z,69.06
2018-04-11T18:27:16.653Z,68.98
2018-04-11T18:29:45.749Z,69.39
2018-04-11T18:32:14.201Z,69.80
2018-04-11T18:34:44.062Z,70.29
2018-04-11T18:37:12.458Z,69.76
2018-04-11T18:39:41.694Z,70.15
2018-04-11T18:42:10.045Z,70.69
2018-04-11T18:44:39.112Z,70.53
2018-04-11T18:47:07.444Z,70.51
2018-04-11T18:49:35.932Z,71.08
2018-04-11T18:52:04.313Z,71.14
2018-04-11T18:54:32.676Z,71.02
2018-04-11T18:57:01.041Z,71.27
2018-04-11T18:59:29.403Z,71.42
2018-04-11T19:01:57.757Z,71.70
2018-04-11T19:04:26.117Z,71.51
2018-04-11T19:06:55.325Z,72.12
2018-04-11T19:09:24.446Z,72.26
2018-04-11T19:11:52.840Z,72.92
2018-04-11T19:14:22.118Z,73.20
2018-04-11T19:16:50.463Z,73.35
2018-04-11T19:19:20.871Z,73.51
2018-04-11T19:21:49.217Z,73.81
2018-04-11T19:24:17.589Z,74.06
2018-04-11T19:26:46.734Z,74.43
2018-04-11T19:29:16.231Z,74.17
2018-04-11T19:31:44.660Z,74.17
2018-04-11T19:34:12.989Z,74.16
2018-04-11T19:36:41.353Z,74.59
2018-04-11T19:39:09.707Z,74.96
2018-04-11T19:41:38.113Z,75.07
2018-04-11T19:44:06.465Z,75.42
2018-04-11T19:46:35.590Z,75.52
2018-04-11T19:49:03.949Z,75.93
2018-04-11T19:51:32.729Z,76.14
2018-04-11T19:54:01.455Z,76.17
2018-04-11T19:56:31.449Z,76.48
2018-04-11T19:58:59.813Z,76.65
2018-04-11T20:01:28.196Z,76.92
2018-04-11T20:03:56.616Z,77.00
2018-04-11T20:06:24.879Z,77.10
2018-04-11T20:08:53.249Z,77.31
2018-04-11T20:11:21.593Z,77.12
2018-04-11T20:13:49.972Z,77.43
2018-04-11T20:16:18.821Z,77.41
2018-04-11T20:18:47.957Z,77.72
2018-04-11T20:21:16.294Z,77.75
2018-04-11T20:23:45.433Z,78.02
2018-04-11T20:26:13.796Z,78.37
2018-04-11T20:28:42.134Z,78.32
2018-04-11T20:31:11.259Z,78.39
2018-04-11T20:33:39.684Z,78.61
2018-04-11T20:36:08.019Z,78.75
2018-04-11T20:38:36.383Z,79.04
2018-04-11T20:41:05.470Z,78.84
2018-04-11T20:43:34.608Z,78.98
2018-04-11T20:46:02.949Z,79.13
2018-04-11T20:48:32.074Z,79.28
2018-04-11T20:51:00.460Z,79.41
2018-04-11T20:53:28.812Z,79.39
2018-04-11T20:55:57.174Z,79.38
2018-04-11T20:58:26.317Z,79.45
2018-04-11T21:00:54.686Z,79.59
2018-04-11T21:03:23.064Z,79.91
2018-04-11T21:05:51.479Z,80.15
2018-04-11T21:08:19.811Z,80.50
2018-04-11T21:10:48.924Z,80.56
2018-04-11T21:13:17.304Z,80.88
2018-04-11T21:15:45.634Z,81.11
2018-04-11T21:18:14.780Z,81.36
2018-04-11T21:20:43.161Z,81.35
2018-04-11T21:23:11.526Z,81.58
2018-04-11T21:25:39.877Z,81.38
2018-04-11T21:28:08.219Z,81.17
2018-04-11T21:30:36.594Z,81.08
2018-04-11T21:33:04.971Z,81.21
2018-04-11T21:35:33.292Z,81.83
2018-04-11T21:38:01.658Z,81.78
2018-04-11T21:40:30.044Z,82.00
2018-04-11T21:42:58.422Z,82.31
2018-04-11T21:45:26.762Z,82.23
2018-04-11T21:47:55.144Z,82.34
2018-04-11T21:50:23.474Z,82.45
2018-04-11T21:52:51.787Z,82.51
2018-04-11T21:55:20.145Z,82.69
2018-04-11T21:57:48.492Z,82.83
2018-04-11T22:00:16.854Z,82.91
2018-04-11T22:02:45.947Z,82.82
2018-04-11T22:05:15.185Z,83.03
2018-04-11T22:07:43.498Z,83.05
2018-04-11T22:10:11.832Z,83.18
2018-04-11T22:12:40.196Z,83.26
2018-04-11T22:15:08.542Z,83.38
2018-04-11T22:17:36.909Z,83.80
2018-04-11T22:20:05.232Z,84.21
2018-04-11T22:22:33.574Z,83.92
2018-04-11T22:25:01.904Z,84.00
2018-04-11T22:27:30.277Z,84.08
2018-04-11T22:29:58.624Z,84.14
2018-04-11T22:32:27.756Z,84.18
2018-04-11T22:34:56.084Z,84.17
2018-04-11T22:37:25.240Z,84.38
2018-04-11T22:39:53.574Z,84.51
2018-04-11T22:42:22.717Z,84.54
2018-04-11T22:44:51.063Z,84.64
2018-04-11T22:47:19.426Z,84.64
2018-04-11T22:49:48.524Z,84.80
2018-04-11T22:52:16.912Z,84.66
2018-04-11T22:54:45.240Z,84.68
2018-04-11T22:57:13.604Z,84.69
2018-04-11T22:59:41.974Z,84.85
2018-04-11T23:02:10.335Z,85.12
2018-04-11T23:04:38.712Z,85.38
2018-04-11T23:07:07.819Z,85.46
2018-04-11T23:09:36.191Z,85.37
2018-04-11T23:12:04.519Z,85.15
2018-04-11T23:14:32.867Z,85.03
2018-04-11T23:17:01.195Z,84.76
2018-04-11T23:19:29.919Z,84.79
2018-04-11T23:21:59.055Z,84.83
2018-04-11T23:24:27.402Z,84.93
2018-04-11T23:26:55.726Z,84.92
2018-04-11T23:29:24.831Z,84.79
2018-04-11T23:31:53.203Z,85.04
2018-04-11T23:34:23.027Z,85.00
2018-04-11T23:36:51.407Z,84.90
2018-04-11T23:39:19.721Z,84.88
2018-04-11T23:41:48.099Z,85.02
2018-04-11T23:44:16.441Z,85.03
2018-04-11T23:46:44.798Z,84.84
2018-04-11T23:49:13.935Z,84.74
2018-04-11T23:51:42.311Z,84.72
2018-04-11T23:54:10.698Z,84.74
2018-04-11T23:56:39.022Z,84.80
2018-04-11T23:59:08.145Z,84.87
